Ansonia, CT (06401)

10:45 PM EST on February 09, 2016 (GMT -0500)
NEWDAYHD.TV Weather | | Change Station
CLOSE
Current Station
Personal Weather Station
Location: Ansonia, CT
Elevation: 285 ft
Nearby Weather Stations

Elev 285 ft 41.36 °N, 73.10 °W | Updated 10 minutes ago

Overcast
Overcast
26.2 °F
Feels Like 26 °F
N
0.0
Wind Variable Wind from North

Today
High -- | Low -- °F
--% Chance of Precip.
Yesterday
High -- | Low -- °F
Precip. -- in
Pressure 29.59 in
Visibility 3.0 miles
Clouds Overcast 3100 ft
Windchill 26 °F
Dew Point 24 °F
Humidity 92%
Rainfall 0.02 in
Snow Depth Not available.
6:55 AM 5:18 PM
Waxing Crescent, 3% visible
METAR KOXC 100335Z 00000KT 3SM OVC031 M03/M09 A2959 RMK AO1
Pressure 29.59 in
Visibility 3.0 miles
Clouds Overcast 3100 ft
Windchill 26 °F
Dew Point 24 °F
Humidity 92%
Rainfall 0.02 in
Snow Depth Not available.
6:55 AM 5:18 PM
Waxing Crescent, 3% visible
METAR KOXC 100335Z 00000KT 3SM OVC031 M03/M09 A2959 RMK AO1

10-Day Weather Forecast

Almanac

Astronomy

Feb. 09, 2016 Rise Set
Actual Time
Civil Twilight
Nautical Twilight
Astronomical Twilight
Moon
Length of Visible Light
Length of Day
Tomorrow will be .
, % of the Moon is Illuminated

Today's Extremes

State Highs State Lows

Community

WunderPhotos

Upload Photos

1,891,792 photos uploaded!

WunderBlog® & News

Nearby

Air Quality

  Air Quality AQ Index Pollutant
Not available.

Snow Depth

Station Depth Elevation

Earthquake Activity

City Distance Mag. Time & Date
Minimum magnitude displayed is 2.5.

Coastal Water Temperatures

Place Temperature

Stations

Nearby Weather Stations

Station Location Temp. Windchill Dew Point Humidity Wind Precip. Elev Updated Type
                   

Watches & Warnings

There are currently no watches in effect.